모두
Coonamble Airport (Coonamble, New South Wales) CNB 기상
|
Coonamble, New South Wales (CNB / YCNM)
맑은 하늘
가벼운 바람 |
|
16 °C |
There is no TAF data available at CNB or any nearby airports.
최근 CNB METAR 이력
| Date | Time (AEST) | Flight Rules | Wind Dir. | Speed | Type | Height AGL (ft) | Visibility | Temp (°C) | Temp (°F) | Dew Point (°C) | Dew Point (°F) | Rel. Humid. | Pressure | Density Altitude | Remarks |
|---|---|---|---|---|---|---|---|---|---|---|---|---|---|---|---|
| 03-5월 | 07:00 | n/a | 50° | 6 kt | Missing | 16° | 60° | 9° | 48° | 63% | 1020 mb | 523 ft | |||
| 03-5월 | 06:00 | n/a | 60° | 7 kt | Missing | 16° | 60° | 9° | 48° | 63% | 1020 mb | 523 ft | |||
| 03-5월 | 05:00 | n/a | 50° | 6 kt | Missing | 17° | 62° | 10° | 50° | 63% | 1019 mb | 673 ft | |||
| 03-5월 | 04:00 | n/a | 60° | 7 kt | Missing | 18° | 64° | 10° | 50° | 59% | 1019 mb | 793 ft | |||
| 03-5월 | 03:00 | n/a | 40° | 8 kt | Missing | 20° | 68° | 10° | 50° | 53% | 1019 mb | 1,033 ft | |||
| 03-5월 | 02:00 | n/a | 30° | 11 kt | Missing | 21° | 69° | 10° | 50° | 49% | 1019 mb | 1,153 ft | |||
| 03-5월 | 01:00 | n/a | 30° | 11 kt | Missing | 21° | 69° | 10° | 50° | 49% | 1019 mb | 1,153 ft | |||
| 03-5월 | 00:00 | n/a | 60° | 7 kt | Missing | 20° | 68° | 9° | 48° | 49% | 1019 mb | 1,033 ft | |||
| 02-5월 | 23:00 | n/a | 70° | 7 kt | Missing | 19° | 66° | 9° | 48° | 52% | 1019 mb | 913 ft | |||
| 02-5월 | 22:00 | n/a | 70° | 7 kt | Missing | 19° | 66° | 9° | 48° | 52% | 1019 mb | 913 ft | |||
| 02-5월 | 21:00 | n/a | 50° | 7 kt | Missing | 19° | 66° | 10° | 50° | 56% | 1019 mb | 913 ft | |||
| 02-5월 | 20:00 | n/a | 50° | 6 kt | Missing | 21° | 69° | 11° | 51° | 53% | 1019 mb | 1,153 ft | |||
| 02-5월 | 19:00 | n/a | 60° | 5 kt | Missing | 22° | 71° | 11° | 51° | 50% | 1019 mb | 1,273 ft | |||
| 02-5월 | 18:00 | n/a | 30° | 5 kt | Missing | 23° | 73° | 11° | 51° | 47% | 1019 mb | 1,393 ft | |||
| 02-5월 | 17:00 | n/a | 30° | 6 kt | Missing | 26° | 78° | 12° | 53° | 42% | 1018 mb | 1,782 ft | |||
| 02-5월 | 16:00 | n/a | 30° | 7 kt | Missing | 27° | 80° | 12° | 53° | 39% | 1018 mb | 1,902 ft | |||
| 02-5월 | 15:00 | n/a | 30° | 10 kt | Missing | 26° | 78° | 13° | 55° | 45% | 1019 mb | 1,753 ft | |||
| 02-5월 | 14:00 | n/a | 20° | 11 kt | Missing | 26° | 78° | 13° | 55° | 45% | 1019 mb | 1,753 ft | |||
| 02-5월 | 13:00 | n/a | 360° | 11 kt | Missing | 26° | 78° | 14° | 57° | 48% | 1020 mb | 1,723 ft | |||
| 02-5월 | 12:00 | n/a | 20° | 10 kt | Missing | 25° | 77° | 14° | 57° | 50% | 1021 mb | 1,574 ft | |||
| 02-5월 | 11:00 | n/a | 30° | 12 kt | Missing | 25° | 77° | 14° | 57° | 50% | 1022 mb | 1,544 ft | |||
| 02-5월 | 10:00 | n/a | 50° | 11 kt | Missing | 23° | 73° | 13° | 55° | 53% | 1023 mb | 1,275 ft | |||
| 02-5월 | 09:00 | n/a | 70° | 9 kt | Missing | 22° | 71° | 13° | 55° | 57% | 1023 mb | 1,155 ft | |||
| 02-5월 | 08:00 | n/a | 70° | 9 kt | Missing | 19° | 66° | 12° | 53° | 64% | 1023 mb | 795 ft |
로그인
| 귀하의 브라우저는 지원되지 않습니다.. 브라우저를 업그레이드하세요 |
